sensor_id;sensor_type;location;lat;lon;timestamp;P1;durP1;ratioP1;P2;durP2;ratioP2
22754;SDS011;11544;42.020;23.094;2022-07-30T00:00:36;13.20;;;11.20;;
22754;SDS011;11544;42.020;23.094;2022-07-30T00:03:02;14.90;;;11.07;;
22754;SDS011;11544;42.020;23.094;2022-07-30T00:05:28;12.45;;;11.20;;
22754;SDS011;11544;42.020;23.094;2022-07-30T00:07:54;12.43;;;11.20;;
22754;SDS011;11544;42.020;23.094;2022-07-30T00:10:20;12.52;;;10.45;;
22754;SDS011;11544;42.020;23.094;2022-07-30T00:12:47;11.75;;;10.65;;
22754;SDS011;11544;42.020;23.094;2022-07-30T00:15:13;12.05;;;10.23;;
22754;SDS011;11544;42.020;23.094;2022-07-30T00:17:39;13.68;;;10.43;;
22754;SDS011;11544;42.020;23.094;2022-07-30T00:20:05;10.93;;;9.82;;
22754;SDS011;11544;42.020;23.094;2022-07-30T00:22:31;11.68;;;10.52;;
22754;SDS011;11544;42.020;23.094;2022-07-30T00:24:57;12.98;;;10.90;;
22754;SDS011;11544;42.020;23.094;2022-07-30T00:27:23;13.73;;;11.95;;
22754;SDS011;11544;42.020;23.094;2022-07-30T00:29:52;11.80;;;10.32;;
22754;SDS011;11544;42.020;23.094;2022-07-30T00:32:21;10.70;;;9.60;;
22754;SDS011;11544;42.020;23.094;2022-07-30T00:34:47;12.07;;;10.40;;
22754;SDS011;11544;42.020;23.094;2022-07-30T00:37:14;11.00;;;9.65;;
22754;SDS011;11544;42.020;23.094;2022-07-30T00:39:43;12.45;;;10.57;;
22754;SDS011;11544;42.020;23.094;2022-07-30T00:42:12;11.10;;;9.70;;
22754;SDS011;11544;42.020;23.094;2022-07-30T00:44:38;13.07;;;10.90;;
22754;SDS011;11544;42.020;23.094;2022-07-30T00:47:06;16.98;;;10.88;;
22754;SDS011;11544;42.020;23.094;2022-07-30T00:49:31;11.93;;;10.73;;
22754;SDS011;11544;42.020;23.094;2022-07-30T00:51:57;11.90;;;10.68;;
22754;SDS011;11544;42.020;23.094;2022-07-30T00:54:23;12.05;;;10.77;;
22754;SDS011;11544;42.020;23.094;2022-07-30T00:56:49;12.20;;;10.90;;
22754;SDS011;11544;42.020;23.094;2022-07-30T00:59:14;11.77;;;10.50;;
22754;SDS011;11544;42.020;23.094;2022-07-30T01:01:40;13.45;;;10.60;;
22754;SDS011;11544;42.020;23.094;2022-07-30T01:04:06;12.68;;;10.75;;
22754;SDS011;11544;42.020;23.094;2022-07-30T01:06:38;11.40;;;10.27;;
22754;SDS011;11544;42.020;23.094;2022-07-30T01:09:05;14.02;;;11.80;;
22754;SDS011;11544;42.020;23.094;2022-07-30T01:11:33;12.23;;;11.02;;
22754;SDS011;11544;42.020;23.094;2022-07-30T01:14:01;11.90;;;10.77;;
22754;SDS011;11544;42.020;23.094;2022-07-30T01:16:29;11.20;;;10.10;;
22754;SDS011;11544;42.020;23.094;2022-07-30T01:18:55;13.52;;;10.95;;
22754;SDS011;11544;42.020;23.094;2022-07-30T01:21:42;10.98;;;9.88;;
22754;SDS011;11544;42.020;23.094;2022-07-30T01:24:19;12.10;;;10.65;;
22754;SDS011;11544;42.020;23.094;2022-07-30T01:26:51;15.07;;;10.98;;
22754;SDS011;11544;42.020;23.094;2022-07-30T01:29:21;11.93;;;10.73;;
22754;SDS011;11544;42.020;23.094;2022-07-30T01:31:49;12.43;;;9.93;;
22754;SDS011;11544;42.020;23.094;2022-07-30T01:34:20;11.35;;;10.23;;
22754;SDS011;11544;42.020;23.094;2022-07-30T01:36:48;13.80;;;11.00;;
22754;SDS011;11544;42.020;23.094;2022-07-30T01:39:15;11.27;;;10.07;;
22754;SDS011;11544;42.020;23.094;2022-07-30T01:41:43;12.05;;;10.85;;
22754;SDS011;11544;42.020;23.094;2022-07-30T01:44:11;12.00;;;10.43;;
22754;SDS011;11544;42.020;23.094;2022-07-30T01:46:38;13.02;;;11.18;;
22754;SDS011;11544;42.020;23.094;2022-07-30T01:49:05;11.48;;;10.30;;
22754;SDS011;11544;42.020;23.094;2022-07-30T01:51:33;12.68;;;11.38;;
22754;SDS011;11544;42.020;23.094;2022-07-30T01:54:02;11.40;;;10.20;;
22754;SDS011;11544;42.020;23.094;2022-07-30T01:56:32;13.63;;;10.68;;
22754;SDS011;11544;42.020;23.094;2022-07-30T01:59:00;11.52;;;10.00;;
22754;SDS011;11544;42.020;23.094;2022-07-30T02:01:29;12.48;;;9.75;;
22754;SDS011;11544;42.020;23.094;2022-07-30T02:03:58;12.10;;;9.90;;
22754;SDS011;11544;42.020;23.094;2022-07-30T02:06:30;11.27;;;10.10;;
22754;SDS011;11544;42.020;23.094;2022-07-30T02:09:02;10.80;;;9.70;;
22754;SDS011;11544;42.020;23.094;2022-07-30T02:11:31;12.27;;;10.02;;
22754;SDS011;11544;42.020;23.094;2022-07-30T02:14:23;12.18;;;10.65;;
22754;SDS011;11544;42.020;23.094;2022-07-30T02:16:54;15.10;;;11.00;;
22754;SDS011;11544;42.020;23.094;2022-07-30T02:19:24;15.77;;;11.35;;
22754;SDS011;11544;42.020;23.094;2022-07-30T02:21:56;16.05;;;11.38;;
22754;SDS011;11544;42.020;23.094;2022-07-30T02:24:29;11.40;;;10.35;;
22754;SDS011;11544;42.020;23.094;2022-07-30T02:27:00;13.27;;;10.48;;
22754;SDS011;11544;42.020;23.094;2022-07-30T02:29:29;12.55;;;10.40;;
22754;SDS011;11544;42.020;23.094;2022-07-30T02:31:57;12.90;;;11.48;;
22754;SDS011;11544;42.020;23.094;2022-07-30T02:34:29;11.25;;;10.15;;
22754;SDS011;11544;42.020;23.094;2022-07-30T02:36:59;12.15;;;10.93;;
22754;SDS011;11544;42.020;23.094;2022-07-30T02:39:26;13.18;;;11.90;;
22754;SDS011;11544;42.020;23.094;2022-07-30T02:41:55;15.65;;;10.82;;
22754;SDS011;11544;42.020;23.094;2022-07-30T02:44:22;18.40;;;9.80;;
22754;SDS011;11544;42.020;23.094;2022-07-30T02:46:51;11.20;;;9.45;;
22754;SDS011;11544;42.020;23.094;2022-07-30T02:49:39;13.50;;;9.35;;
22754;SDS011;11544;42.020;23.094;2022-07-30T02:52:08;10.50;;;9.50;;
22754;SDS011;11544;42.020;23.094;2022-07-30T02:54:38;11.93;;;9.30;;
22754;SDS011;11544;42.020;23.094;2022-07-30T02:57:12;9.88;;;8.82;;
22754;SDS011;11544;42.020;23.094;2022-07-30T02:59:41;10.93;;;9.38;;
22754;SDS011;11544;42.020;23.094;2022-07-30T03:02:11;10.68;;;9.60;;
22754;SDS011;11544;42.020;23.094;2022-07-30T03:04:38;12.05;;;8.38;;
22754;SDS011;11544;42.020;23.094;2022-07-30T03:07:06;11.93;;;9.30;;
22754;SDS011;11544;42.020;23.094;2022-07-30T03:09:33;13.02;;;9.55;;
22754;SDS011;11544;42.020;23.094;2022-07-30T03:12:04;10.05;;;9.00;;
22754;SDS011;11544;42.020;23.094;2022-07-30T03:14:31;9.80;;;8.60;;
22754;SDS011;11544;42.020;23.094;2022-07-30T03:16:57;10.38;;;9.23;;
22754;SDS011;11544;42.020;23.094;2022-07-30T03:19:27;9.90;;;8.90;;
22754;SDS011;11544;42.020;23.094;2022-07-30T03:21:55;10.18;;;9.18;;
22754;SDS011;11544;42.020;23.094;2022-07-30T03:24:22;13.65;;;9.88;;
22754;SDS011;11544;42.020;23.094;2022-07-30T03:26:55;10.38;;;9.38;;
22754;SDS011;11544;42.020;23.094;2022-07-30T03:29:22;10.82;;;9.73;;
22754;SDS011;11544;42.020;23.094;2022-07-30T03:31:50;11.60;;;9.75;;
22754;SDS011;11544;42.020;23.094;2022-07-30T03:34:18;10.20;;;9.13;;
22754;SDS011;11544;42.020;23.094;2022-07-30T03:36:45;11.10;;;9.18;;
22754;SDS011;11544;42.020;23.094;2022-07-30T03:39:11;10.75;;;8.68;;
22754;SDS011;11544;42.020;23.094;2022-07-30T03:41:38;9.90;;;8.90;;
22754;SDS011;11544;42.020;23.094;2022-07-30T03:44:08;11.10;;;9.52;;
22754;SDS011;11544;42.020;23.094;2022-07-30T03:46:35;11.43;;;8.88;;
22754;SDS011;11544;42.020;23.094;2022-07-30T03:49:03;17.00;;;9.98;;
22754;SDS011;11544;42.020;23.094;2022-07-30T03:51:31;10.95;;;9.77;;
22754;SDS011;11544;42.020;23.094;2022-07-30T03:54:02;11.13;;;9.90;;
22754;SDS011;11544;42.020;23.094;2022-07-30T03:56:40;12.50;;;10.00;;
22754;SDS011;11544;42.020;23.094;2022-07-30T03:59:09;13.05;;;9.95;;
22754;SDS011;11544;42.020;23.094;2022-07-30T04:01:38;11.63;;;9.93;;
22754;SDS011;11544;42.020;23.094;2022-07-30T04:04:11;13.30;;;10.70;;
22754;SDS011;11544;42.020;23.094;2022-07-30T04:06:39;11.43;;;10.25;;
22754;SDS011;11544;42.020;23.094;2022-07-30T04:09:08;12.60;;;9.98;;
22754;SDS011;11544;42.020;23.094;2022-07-30T04:11:36;11.48;;;10.20;;
22754;SDS011;11544;42.020;23.094;2022-07-30T04:14:04;12.13;;;10.05;;
22754;SDS011;11544;42.020;23.094;2022-07-30T04:16:36;15.18;;;10.98;;
22754;SDS011;11544;42.020;23.094;2022-07-30T04:19:09;12.20;;;10.90;;
22754;SDS011;11544;42.020;23.094;2022-07-30T04:21:40;13.27;;;11.90;;
22754;SDS011;11544;42.020;23.094;2022-07-30T04:24:08;15.70;;;12.32;;
22754;SDS011;11544;42.020;23.094;2022-07-30T04:26:37;15.23;;;13.32;;
22754;SDS011;11544;42.020;23.094;2022-07-30T04:29:07;16.67;;;13.77;;
22754;SDS011;11544;42.020;23.094;2022-07-30T04:31:35;19.63;;;12.75;;
22754;SDS011;11544;42.020;23.094;2022-07-30T04:34:13;18.23;;;13.35;;
22754;SDS011;11544;42.020;23.094;2022-07-30T04:36:40;17.02;;;13.68;;
22754;SDS011;11544;42.020;23.094;2022-07-30T04:39:07;13.57;;;12.00;;
22754;SDS011;11544;42.020;23.094;2022-07-30T04:41:34;14.88;;;11.43;;
22754;SDS011;11544;42.020;23.094;2022-07-30T04:44:23;15.93;;;12.50;;
22754;SDS011;11544;42.020;23.094;2022-07-30T04:47:09;16.75;;;12.20;;
22754;SDS011;11544;42.020;23.094;2022-07-30T04:49:45;13.05;;;11.63;;
22754;SDS011;11544;42.020;23.094;2022-07-30T04:52:12;13.85;;;12.07;;
22754;SDS011;11544;42.020;23.094;2022-07-30T04:54:45;18.55;;;11.57;;
22754;SDS011;11544;42.020;23.094;2022-07-30T04:57:16;14.73;;;11.98;;
22754;SDS011;11544;42.020;23.094;2022-07-30T04:59:44;15.02;;;11.45;;
22754;SDS011;11544;42.020;23.094;2022-07-30T05:02:10;13.45;;;12.10;;
22754;SDS011;11544;42.020;23.094;2022-07-30T05:04:39;15.57;;;11.65;;
22754;SDS011;11544;42.020;23.094;2022-07-30T05:07:05;13.40;;;12.07;;
22754;SDS011;11544;42.020;23.094;2022-07-30T05:09:32;15.60;;;11.65;;
22754;SDS011;11544;42.020;23.094;2022-07-30T05:12:00;17.65;;;12.63;;
22754;SDS011;11544;42.020;23.094;2022-07-30T05:14:26;15.32;;;12.13;;
22754;SDS011;11544;42.020;23.094;2022-07-30T05:16:53;15.38;;;11.95;;
22754;SDS011;11544;42.020;23.094;2022-07-30T05:19:20;13.30;;;11.23;;
22754;SDS011;11544;42.020;23.094;2022-07-30T05:21:47;13.82;;;11.27;;
22754;SDS011;11544;42.020;23.094;2022-07-30T05:24:13;18.45;;;12.18;;
22754;SDS011;11544;42.020;23.094;2022-07-30T05:26:41;12.50;;;11.13;;
22754;SDS011;11544;42.020;23.094;2022-07-30T05:29:09;15.27;;;11.68;;
22754;SDS011;11544;42.020;23.094;2022-07-30T05:31:45;13.77;;;11.07;;
22754;SDS011;11544;42.020;23.094;2022-07-30T05:34:12;14.75;;;10.68;;
22754;SDS011;11544;42.020;23.094;2022-07-30T05:36:42;14.95;;;11.00;;
22754;SDS011;11544;42.020;23.094;2022-07-30T05:39:10;12.60;;;11.32;;
22754;SDS011;11544;42.020;23.094;2022-07-30T05:41:55;13.70;;;11.95;;
22754;SDS011;11544;42.020;23.094;2022-07-30T05:44:27;13.07;;;11.75;;
22754;SDS011;11544;42.020;23.094;2022-07-30T05:46:54;14.82;;;11.57;;
22754;SDS011;11544;42.020;23.094;2022-07-30T05:49:19;14.93;;;11.50;;
22754;SDS011;11544;42.020;23.094;2022-07-30T05:51:47;12.82;;;11.48;;
22754;SDS011;11544;42.020;23.094;2022-07-30T05:54:14;18.90;;;12.25;;
22754;SDS011;11544;42.020;23.094;2022-07-30T05:56:58;15.20;;;11.80;;
22754;SDS011;11544;42.020;23.094;2022-07-30T05:59:31;14.02;;;12.27;;
22754;SDS011;11544;42.020;23.094;2022-07-30T06:01:59;16.45;;;12.07;;
22754;SDS011;11544;42.020;23.094;2022-07-30T06:04:39;20.00;;;13.13;;
22754;SDS011;11544;42.020;23.094;2022-07-30T06:07:05;13.43;;;11.82;;
22754;SDS011;11544;42.020;23.094;2022-07-30T06:09:32;15.55;;;11.57;;
22754;SDS011;11544;42.020;23.094;2022-07-30T06:11:58;15.05;;;11.82;;
22754;SDS011;11544;42.020;23.094;2022-07-30T06:14:23;16.70;;;12.40;;
22754;SDS011;11544;42.020;23.094;2022-07-30T06:16:49;13.35;;;12.00;;
22754;SDS011;11544;42.020;23.094;2022-07-30T06:19:16;17.70;;;12.27;;
22754;SDS011;11544;42.020;23.094;2022-07-30T06:21:43;14.50;;;12.30;;
22754;SDS011;11544;42.020;23.094;2022-07-30T06:24:14;18.40;;;11.90;;
22754;SDS011;11544;42.020;23.094;2022-07-30T06:27:00;14.45;;;12.02;;
22754;SDS011;11544;42.020;23.094;2022-07-30T06:29:26;13.95;;;12.05;;
22754;SDS011;11544;42.020;23.094;2022-07-30T06:31:52;13.38;;;11.98;;
22754;SDS011;11544;42.020;23.094;2022-07-30T06:34:17;12.30;;;11.00;;
22754;SDS011;11544;42.020;23.094;2022-07-30T06:36:43;18.02;;;12.52;;
22754;SDS011;11544;42.020;23.094;2022-07-30T06:39:16;14.82;;;11.63;;
22754;SDS011;11544;42.020;23.094;2022-07-30T06:41:54;14.32;;;11.45;;
22754;SDS011;11544;42.020;23.094;2022-07-30T06:44:19;14.88;;;12.18;;
22754;SDS011;11544;42.020;23.094;2022-07-30T06:47:04;18.25;;;12.00;;
22754;SDS011;11544;42.020;23.094;2022-07-30T06:49:31;13.60;;;11.85;;
22754;SDS011;11544;42.020;23.094;2022-07-30T06:51:58;16.15;;;11.98;;
22754;SDS011;11544;42.020;23.094;2022-07-30T06:54:24;14.73;;;11.93;;
22754;SDS011;11544;42.020;23.094;2022-07-30T06:57:15;18.50;;;12.15;;
22754;SDS011;11544;42.020;23.094;2022-07-30T06:59:42;16.25;;;11.85;;
22754;SDS011;11544;42.020;23.094;2022-07-30T07:02:23;17.40;;;12.02;;
22754;SDS011;11544;42.020;23.094;2022-07-30T07:05:22;15.25;;;11.88;;
22754;SDS011;11544;42.020;23.094;2022-07-30T07:07:49;15.45;;;12.27;;
22754;SDS011;11544;42.020;23.094;2022-07-30T07:10:18;15.73;;;11.60;;
22754;SDS011;11544;42.020;23.094;2022-07-30T07:12:58;14.50;;;11.13;;
22754;SDS011;11544;42.020;23.094;2022-07-30T07:15:25;17.60;;;12.18;;
22754;SDS011;11544;42.020;23.094;2022-07-30T07:17:51;17.65;;;12.52;;
22754;SDS011;11544;42.020;23.094;2022-07-30T07:20:38;15.95;;;11.55;;
22754;SDS011;11544;42.020;23.094;2022-07-30T07:23:07;16.73;;;12.45;;
22754;SDS011;11544;42.020;23.094;2022-07-30T07:25:33;15.40;;;11.90;;
22754;SDS011;11544;42.020;23.094;2022-07-30T07:27:58;13.13;;;11.18;;
22754;SDS011;11544;42.020;23.094;2022-07-30T07:30:24;17.42;;;11.23;;
22754;SDS011;11544;42.020;23.094;2022-07-30T07:32:50;14.48;;;11.98;;
22754;SDS011;11544;42.020;23.094;2022-07-30T07:35:16;15.90;;;12.32;;
22754;SDS011;11544;42.020;23.094;2022-07-30T07:37:46;16.85;;;12.27;;
22754;SDS011;11544;42.020;23.094;2022-07-30T07:40:18;16.65;;;12.15;;
22754;SDS011;11544;42.020;23.094;2022-07-30T07:42:44;17.05;;;12.32;;
22754;SDS011;11544;42.020;23.094;2022-07-30T07:45:12;14.10;;;11.65;;
22754;SDS011;11544;42.020;23.094;2022-07-30T07:48:08;15.10;;;12.57;;
22754;SDS011;11544;42.020;23.094;2022-07-30T07:50:54;15.35;;;12.10;;
22754;SDS011;11544;42.020;23.094;2022-07-30T07:53:25;12.60;;;10.68;;
22754;SDS011;11544;42.020;23.094;2022-07-30T07:55:52;15.63;;;11.27;;
22754;SDS011;11544;42.020;23.094;2022-07-30T07:58:23;12.57;;;11.07;;
22754;SDS011;11544;42.020;23.094;2022-07-30T08:00:52;17.58;;;11.77;;
22754;SDS011;11544;42.020;23.094;2022-07-30T08:03:21;18.33;;;11.73;;
22754;SDS011;11544;42.020;23.094;2022-07-30T08:05:52;12.70;;;11.43;;
22754;SDS011;11544;42.020;23.094;2022-07-30T08:09:02;12.73;;;11.38;;
22754;SDS011;11544;42.020;23.094;2022-07-30T08:11:56;11.27;;;10.07;;
22754;SDS011;11544;42.020;23.094;2022-07-30T08:14:45;15.73;;;10.32;;
22754;SDS011;11544;42.020;23.094;2022-07-30T08:17:29;15.80;;;9.77;;
22754;SDS011;11544;42.020;23.094;2022-07-30T08:20:19;11.63;;;10.38;;
22754;SDS011;11544;42.020;23.094;2022-07-30T08:22:46;11.27;;;10.20;;
22754;SDS011;11544;42.020;23.094;2022-07-30T08:25:13;13.82;;;10.90;;
22754;SDS011;11544;42.020;23.094;2022-07-30T08:27:49;11.55;;;10.32;;
22754;SDS011;11544;42.020;23.094;2022-07-30T08:30:15;11.23;;;9.57;;
22754;SDS011;11544;42.020;23.094;2022-07-30T08:32:41;14.65;;;10.73;;
22754;SDS011;11544;42.020;23.094;2022-07-30T08:35:08;14.65;;;10.65;;
22754;SDS011;11544;42.020;23.094;2022-07-30T08:37:34;13.30;;;10.25;;
22754;SDS011;11544;42.020;23.094;2022-07-30T08:40:02;12.45;;;10.98;;
22754;SDS011;11544;42.020;23.094;2022-07-30T08:42:30;11.75;;;10.48;;
22754;SDS011;11544;42.020;23.094;2022-07-30T08:44:59;13.77;;;10.20;;
22754;SDS011;11544;42.020;23.094;2022-07-30T08:47:31;16.20;;;10.77;;
22754;SDS011;11544;42.020;23.094;2022-07-30T08:50:20;12.93;;;10.10;;
22754;SDS011;11544;42.020;23.094;2022-07-30T08:53:05;13.55;;;10.48;;
22754;SDS011;11544;42.020;23.094;2022-07-30T08:55:31;16.25;;;10.32;;
22754;SDS011;11544;42.020;23.094;2022-07-30T08:58:01;11.77;;;9.98;;
22754;SDS011;11544;42.020;23.094;2022-07-30T09:00:32;14.20;;;9.85;;
22754;SDS011;11544;42.020;23.094;2022-07-30T09:02:59;13.07;;;9.73;;
22754;SDS011;11544;42.020;23.094;2022-07-30T09:05:26;10.95;;;9.82;;
22754;SDS011;11544;42.020;23.094;2022-07-30T09:07:51;10.95;;;8.85;;
22754;SDS011;11544;42.020;23.094;2022-07-30T09:10:21;12.45;;;9.95;;
22754;SDS011;11544;42.020;23.094;2022-07-30T09:12:52;11.77;;;9.38;;
22754;SDS011;11544;42.020;23.094;2022-07-30T09:15:19;11.88;;;9.45;;
22754;SDS011;11544;42.020;23.094;2022-07-30T09:20:16;13.73;;;8.95;;
22754;SDS011;11544;42.020;23.094;2022-07-30T09:22:49;11.50;;;8.35;;
22754;SDS011;11544;42.020;23.094;2022-07-30T09:25:42;13.07;;;8.60;;
22754;SDS011;11544;42.020;23.094;2022-07-30T09:28:35;11.15;;;8.63;;
22754;SDS011;11544;42.020;23.094;2022-07-30T09:31:13;10.77;;;8.10;;
22754;SDS011;11544;42.020;23.094;2022-07-30T09:34:03;10.40;;;8.55;;
22754;SDS011;11544;42.020;23.094;2022-07-30T09:37:04;11.60;;;8.38;;
22754;SDS011;11544;42.020;23.094;2022-07-30T09:40:09;8.60;;;7.82;;
22754;SDS011;11544;42.020;23.094;2022-07-30T09:43:09;9.68;;;7.97;;
22754;SDS011;11544;42.020;23.094;2022-07-30T09:45:48;9.60;;;8.68;;
22754;SDS011;11544;42.020;23.094;2022-07-30T09:48:19;10.98;;;8.32;;
22754;SDS011;11544;42.020;23.094;2022-07-30T09:50:49;8.52;;;7.57;;
22754;SDS011;11544;42.020;23.094;2022-07-30T09:53:16;9.98;;;7.72;;
22754;SDS011;11544;42.020;23.094;2022-07-30T09:55:43;9.18;;;8.25;;
22754;SDS011;11544;42.020;23.094;2022-07-30T09:58:11;8.25;;;7.47;;
22754;SDS011;11544;42.020;23.094;2022-07-30T10:00:38;8.10;;;7.40;;
22754;SDS011;11544;42.020;23.094;2022-07-30T10:03:27;8.90;;;8.02;;
22754;SDS011;11544;42.020;23.094;2022-07-30T10:06:35;8.98;;;8.15;;
22754;SDS011;11544;42.020;23.094;2022-07-30T10:09:07;8.43;;;7.68;;
22754;SDS011;11544;42.020;23.094;2022-07-30T10:11:33;8.68;;;7.70;;
22754;SDS011;11544;42.020;23.094;2022-07-30T10:13:59;9.73;;;8.82;;
22754;SDS011;11544;42.020;23.094;2022-07-30T10:16:29;8.82;;;8.00;;
22754;SDS011;11544;42.020;23.094;2022-07-30T10:19:00;9.15;;;8.32;;
22754;SDS011;11544;42.020;23.094;2022-07-30T10:21:55;9.82;;;8.18;;
22754;SDS011;11544;42.020;23.094;2022-07-30T10:24:40;9.32;;;8.05;;
22754;SDS011;11544;42.020;23.094;2022-07-30T10:27:32;9.93;;;8.52;;
22754;SDS011;11544;42.020;23.094;2022-07-30T10:30:04;8.88;;;8.07;;
22754;SDS011;11544;42.020;23.094;2022-07-30T10:32:30;8.63;;;7.82;;
22754;SDS011;11544;42.020;23.094;2022-07-30T10:34:56;7.97;;;7.28;;
22754;SDS011;11544;42.020;23.094;2022-07-30T10:37:23;10.05;;;8.55;;
22754;SDS011;11544;42.020;23.094;2022-07-30T10:39:52;8.93;;;8.20;;
22754;SDS011;11544;42.020;23.094;2022-07-30T10:45:15;9.30;;;8.23;;
22754;SDS011;11544;42.020;23.094;2022-07-30T10:47:50;9.57;;;8.57;;
22754;SDS011;11544;42.020;23.094;2022-07-30T10:50:20;10.73;;;8.52;;
22754;SDS011;11544;42.020;23.094;2022-07-30T10:52:52;9.02;;;7.82;;
22754;SDS011;11544;42.020;23.094;2022-07-30T10:55:25;10.88;;;7.72;;
22754;SDS011;11544;42.020;23.094;2022-07-30T11:00:26;9.57;;;8.38;;
22754;SDS011;11544;42.020;23.094;2022-07-30T11:03:12;9.57;;;8.40;;
22754;SDS011;11544;42.020;23.094;2022-07-30T11:05:40;9.07;;;8.13;;
22754;SDS011;11544;42.020;23.094;2022-07-30T11:10:54;8.68;;;7.88;;
22754;SDS011;11544;42.020;23.094;2022-07-30T11:14:05;8.52;;;7.82;;
22754;SDS011;11544;42.020;23.094;2022-07-30T11:19:12;7.57;;;6.97;;
22754;SDS011;11544;42.020;23.094;2022-07-30T11:21:42;8.65;;;7.65;;
22754;SDS011;11544;42.020;23.094;2022-07-30T11:27:32;9.05;;;7.15;;
22754;SDS011;11544;42.020;23.094;2022-07-30T11:30:02;8.32;;;7.53;;
22754;SDS011;11544;42.020;23.094;2022-07-30T11:32:49;8.18;;;7.45;;
22754;SDS011;11544;42.020;23.094;2022-07-30T11:38:26;8.13;;;7.40;;
22754;SDS011;11544;42.020;23.094;2022-07-30T11:40:35;9.90;;;7.30;;
22754;SDS011;11544;42.020;23.094;2022-07-30T11:43:34;8.50;;;7.15;;
22754;SDS011;11544;42.020;23.094;2022-07-30T11:48:39;6.78;;;6.18;;
22754;SDS011;11544;42.020;23.094;2022-07-30T11:51:07;6.72;;;5.97;;
22754;SDS011;11544;42.020;23.094;2022-07-30T11:53:34;8.68;;;6.57;;
22754;SDS011;11544;42.020;23.094;2022-07-30T11:56:01;6.88;;;6.18;;
22754;SDS011;11544;42.020;23.094;2022-07-30T11:58:35;7.13;;;5.70;;
22754;SDS011;11544;42.020;23.094;2022-07-30T12:01:03;6.57;;;5.97;;
22754;SDS011;11544;42.020;23.094;2022-07-30T12:03:41;6.93;;;6.30;;
22754;SDS011;11544;42.020;23.094;2022-07-30T12:06:08;8.68;;;7.03;;
22754;SDS011;11544;42.020;23.094;2022-07-30T12:08:48;7.20;;;6.55;;
22754;SDS011;11544;42.020;23.094;2022-07-30T12:11:15;8.80;;;6.00;;
22754;SDS011;11544;42.020;23.094;2022-07-30T12:17:39;7.07;;;6.40;;
22754;SDS011;11544;42.020;23.094;2022-07-30T12:20:18;6.65;;;5.95;;
22754;SDS011;11544;42.020;23.094;2022-07-30T12:22:45;7.82;;;6.50;;
22754;SDS011;11544;42.020;23.094;2022-07-30T12:25:15;6.65;;;5.97;;
22754;SDS011;11544;42.020;23.094;2022-07-30T12:27:45;7.07;;;6.38;;
22754;SDS011;11544;42.020;23.094;2022-07-30T12:30:12;6.78;;;6.28;;
22754;SDS011;11544;42.020;23.094;2022-07-30T12:32:40;6.55;;;5.90;;
22754;SDS011;11544;42.020;23.094;2022-07-30T12:35:12;6.82;;;6.22;;
22754;SDS011;11544;42.020;23.094;2022-07-30T12:37:38;6.60;;;5.90;;
22754;SDS011;11544;42.020;23.094;2022-07-30T12:42:33;6.90;;;6.22;;
22754;SDS011;11544;42.020;23.094;2022-07-30T12:44:59;7.28;;;6.57;;
22754;SDS011;11544;42.020;23.094;2022-07-30T12:47:29;6.93;;;6.22;;
22754;SDS011;11544;42.020;23.094;2022-07-30T12:49:56;7.80;;;6.70;;
22754;SDS011;11544;42.020;23.094;2022-07-30T12:54:56;7.15;;;6.45;;
22754;SDS011;11544;42.020;23.094;2022-07-30T12:57:21;6.60;;;6.03;;
22754;SDS011;11544;42.020;23.094;2022-07-30T12:59:47;7.32;;;6.43;;
22754;SDS011;11544;42.020;23.094;2022-07-30T13:02:34;8.65;;;6.90;;
22754;SDS011;11544;42.020;23.094;2022-07-30T13:05:00;8.38;;;6.55;;
22754;SDS011;11544;42.020;23.094;2022-07-30T13:07:27;6.97;;;6.30;;
22754;SDS011;11544;42.020;23.094;2022-07-30T13:10:08;7.38;;;6.68;;
22754;SDS011;11544;42.020;23.094;2022-07-30T13:12:37;7.63;;;6.82;;
22754;SDS011;11544;42.020;23.094;2022-07-30T13:15:08;8.57;;;6.78;;
22754;SDS011;11544;42.020;23.094;2022-07-30T13:17:47;7.13;;;6.38;;
22754;SDS011;11544;42.020;23.094;2022-07-30T13:20:14;8.07;;;7.00;;
22754;SDS011;11544;42.020;23.094;2022-07-30T13:22:41;7.22;;;6.55;;
22754;SDS011;11544;42.020;23.094;2022-07-30T13:25:08;7.60;;;6.95;;
22754;SDS011;11544;42.020;23.094;2022-07-30T13:27:34;7.65;;;6.75;;
22754;SDS011;11544;42.020;23.094;2022-07-30T13:30:00;7.80;;;6.70;;
22754;SDS011;11544;42.020;23.094;2022-07-30T13:32:33;7.18;;;6.50;;
22754;SDS011;11544;42.020;23.094;2022-07-30T13:34:59;8.48;;;7.10;;
22754;SDS011;11544;42.020;23.094;2022-07-30T13:37:24;7.15;;;6.57;;
22754;SDS011;11544;42.020;23.094;2022-07-30T13:39:53;9.68;;;6.65;;
22754;SDS011;11544;42.020;23.094;2022-07-30T13:42:19;7.38;;;6.65;;
22754;SDS011;11544;42.020;23.094;2022-07-30T13:44:48;9.35;;;7.32;;
22754;SDS011;11544;42.020;23.094;2022-07-30T13:47:13;8.05;;;7.07;;
22754;SDS011;11544;42.020;23.094;2022-07-30T13:49:39;8.05;;;7.25;;
22754;SDS011;11544;42.020;23.094;2022-07-30T13:52:08;10.68;;;8.02;;
22754;SDS011;11544;42.020;23.094;2022-07-30T13:54:34;9.63;;;7.00;;
22754;SDS011;11544;42.020;23.094;2022-07-30T13:57:00;7.95;;;6.75;;
22754;SDS011;11544;42.020;23.094;2022-07-30T13:59:30;7.30;;;6.60;;
22754;SDS011;11544;42.020;23.094;2022-07-30T14:01:56;7.20;;;6.60;;
22754;SDS011;11544;42.020;23.094;2022-07-30T14:07:01;10.45;;;7.82;;
22754;SDS011;11544;42.020;23.094;2022-07-30T14:09:26;8.90;;;8.15;;
22754;SDS011;11544;42.020;23.094;2022-07-30T14:11:55;9.60;;;7.95;;
22754;SDS011;11544;42.020;23.094;2022-07-30T14:14:24;8.68;;;7.85;;
22754;SDS011;11544;42.020;23.094;2022-07-30T14:16:49;11.80;;;8.30;;
22754;SDS011;11544;42.020;23.094;2022-07-30T14:19:17;8.98;;;8.07;;
22754;SDS011;11544;42.020;23.094;2022-07-30T14:21:43;8.95;;;8.05;;
22754;SDS011;11544;42.020;23.094;2022-07-30T14:24:09;9.18;;;8.13;;
22754;SDS011;11544;42.020;23.094;2022-07-30T14:26:37;9.70;;;7.90;;
22754;SDS011;11544;42.020;23.094;2022-07-30T14:29:03;9.00;;;8.10;;
22754;SDS011;11544;42.020;23.094;2022-07-30T14:31:30;9.23;;;8.32;;
22754;SDS011;11544;42.020;23.094;2022-07-30T14:34:17;8.98;;;7.90;;
22754;SDS011;11544;42.020;23.094;2022-07-30T14:36:45;8.43;;;7.63;;
22754;SDS011;11544;42.020;23.094;2022-07-30T14:39:11;8.85;;;8.05;;
22754;SDS011;11544;42.020;23.094;2022-07-30T14:41:36;9.07;;;8.15;;
22754;SDS011;11544;42.020;23.094;2022-07-30T14:44:03;10.65;;;8.18;;
22754;SDS011;11544;42.020;23.094;2022-07-30T14:46:29;8.52;;;7.82;;
22754;SDS011;11544;42.020;23.094;2022-07-30T14:48:58;9.18;;;8.38;;
22754;SDS011;11544;42.020;23.094;2022-07-30T14:51:26;10.32;;;7.95;;
22754;SDS011;11544;42.020;23.094;2022-07-30T14:53:55;9.77;;;8.82;;
22754;SDS011;11544;42.020;23.094;2022-07-30T14:56:21;9.57;;;8.55;;
22754;SDS011;11544;42.020;23.094;2022-07-30T14:58:49;8.55;;;7.75;;
22754;SDS011;11544;42.020;23.094;2022-07-30T15:01:15;9.07;;;7.75;;
22754;SDS011;11544;42.020;23.094;2022-07-30T15:03:42;9.07;;;8.05;;
22754;SDS011;11544;42.020;23.094;2022-07-30T15:06:09;10.10;;;8.25;;
22754;SDS011;11544;42.020;23.094;2022-07-30T15:08:38;9.43;;;8.27;;
22754;SDS011;11544;42.020;23.094;2022-07-30T15:11:04;8.85;;;8.07;;
22754;SDS011;11544;42.020;23.094;2022-07-30T15:13:30;9.45;;;8.50;;